Greenfield, MO (65661)

7:25 AM CDT on March 28, 2015 (GMT -0500)
Charis Farms | | Change Station
CLOSE
Current Station
Personal Weather Station
Location: Ash Grove, MO
Elevation: 1024 ft
Nearby Weather Stations

Elev 1024 ft 37.34 °N, 93.60 °W | Updated 7 seconds ago

Overcast
Overcast
39.0 °F
Feels Like 36 °F
N
4.0
Wind Variable Wind from East
Gusts 4.0 mph

Today
High -- | Low -- °F
--% Chance of Precip.
Yesterday
High -- | Low -- °F
Precip. -- in
7:07 AM 7:34 PM
First Quarter, 62% visible
Pressure 30.14 in
Visibility 10.0 miles
Clouds Mostly Cloudy 7000 ft
Overcast 8000 ft
Windchill 36 °F
Dew Point 28 °F
Humidity 64%
Rainfall 0.00 in
Snow Depth Not available.
UV 0 out of 12
Pollen 8.50 out of 12
Air Quality Not available.
Flu Activity Not available.
METAR KSGF 281152Z 12010KT 10SM BKN070 OVC080 04/M05 A3013 RMK AO2 SLP207 70001 T00391050 10050 20039 53012

More Conditions Fewer Conditions

Pressure 30.14 in
Visibility 10.0 miles
Clouds Mostly Cloudy 7000 ft
Overcast 8000 ft
Windchill 36 °F
Dew Point 28 °F
Humidity 64%
Rainfall 0.00 in
Snow Depth Not available.
UV 0 out of 12
Pollen 8.50 out of 12
Air Quality Not available.
Flu Activity Not available.
METAR KSGF 281152Z 12010KT 10SM BKN070 OVC080 04/M05 A3013 RMK AO2 SLP207 70001 T00391050 10050 20039 53012

More Conditions Fewer Conditions

10-Day Weather Forecast

Almanac

Astronomy

Mar. 28, 2015 Rise Set
Actual Time
Civil Twilight
Nautical Twilight
Astronomical Twilight
Moon
Length of Visible Light
Length of Day
Tomorrow will be .
, % of the Moon is Illuminated

Today's Extremes

State Highs State Lows

Community

WunderPhotos

Upload Photos

1,808,964 photos uploaded!

WunderBlogs® & News

Nearby

Air Quality

  Air Quality AQ Index Pollutant
Not available.

Snow Depth

Station Depth Elevation

Earthquake Activity

City Distance Mag. Time & Date
Minimum magnitude displayed is 2.5.

Coastal Water Temperatures

Place Temperature

Stations

Nearby Weather Stations

Station Location Temp. Windchill Dew Point Humidity Wind Precip. Elev Updated Type